KTDZ/TDZ METAR and TAF weather

Enter ICAO airport designator
Station Type Date Time Source
KTDZ METAR 2022/12/02 21:53 UTC NOAA

KTDZ 022153Z AUTO 17014KT 10SM FEW070 OVC090 09/M01 A2995 RMK AO2 SLP145 T00941011


Station Type Date Time Source
KTDZ Decoded METAR 2022/12/02 21:53 UTC NOAA

TOLEDO METCALF FIELD, OH, United States (KTDZ) 41-34N 83-29W 189M
Dec 02, 2022 - 04:53 PM EST / 2022.12.02 2153 UTC
Wind: from the S (170 degrees) at 16 MPH (14 KT):0
Visibility: 10 mile(s):0
Sky conditions: overcast
Temperature: 48.9 F (9.4 C)
Dew Point: 30.0 F (-1.1 C)
Relative Humidity: 47%
Pressure (altimeter): 29.95 in. Hg (1014 hPa)
ob: KTDZ 022153Z AUTO 17014KT 10SM FEW070 OVC090 09/M01 A2995 RMK AO2 SLP145 T00941011
cycle: 22

Station Type Date Time Source
KTDZ TAF UTC NOAA

Error!

Example: see airport list